Date,TemperatureHighF,TemperatureAvgF,TemperatureLowF,DewpointHighF,DewpointAvgF,DewpointLowF,HumidityHigh,HumidityAvg,HumidityLow,PressureMaxIn,PressureMinIn,WindSpeedMaxMPH,WindSpeedAvgMPH,GustSpeedMaxMPH,PrecipitationSumIn
2014-1-1,8,4,0,1,-3,-8,74,71,67,30.47,30.38,16,5,16,0.00
2014-1-2,11,8,6,3,1,-1,80,74,64,30.44,30.34,16,5,16,0.00
2014-1-3,18,14,7,13,8,-1,81,77,70,30.36,29.85,23,5,23,0.00
2014-1-4,31,22,15,26,14,7,81,73,69,30.14,29.93,15,5,15,0.02
2014-1-5,15,4,-8,7,-6,-17,72,63,52,30.25,30.13,25,6,25,0.00
2014-1-6,-8,-13,-18,-16,-22,-27,73,65,59,30.31,30.18,24,6,24,0.00
2014-1-10,35,32,26,34,31,25,96,95,94,30.05,29.48,20,5,20,0.12
2014-1-11,35,32,28,34,29,24,96,90,85,29.78,29.43,19,5,19,0.01
2014-1-12,40,33,25,33,28,22,92,84,71,29.79,29.55,22,2,22,0.01
2014-1-13,40,34,24,34,28,19,90,81,67,29.74,29.53,16,2,16,0.00
2014-1-14,34,26,16,32,23,10,93,87,79,29.96,29.52,26,7,26,0.00
2014-1-15,18,13,10,14,7,4,82,77,69,30.13,29.72,17,3,17,0.00
2014-1-16,34,24,12,31,18,4,91,80,67,29.76,29.45,24,4,24,0.07
2014-1-17,18,14,9,12,8,3,83,77,70,30.01,29.75,19,4,19,0.00
2014-1-18,16,8,0,12,4,-4,86,83,78,29.98,29.81,14,2,14,0.00
2014-1-19,34,25,0,29,20,-3,89,80,69,29.90,29.53,11,3,14,0.00
2014-1-20,34,19,6,29,14,-4,87,81,63,30.29,29.65,19,5,19,0.00
2014-1-21,6,0,-5,-3,-8,-11,78,69,59,30.43,30.22,18,3,18,0.00
2014-1-22,11,4,-2,5,-3,-11,80,72,61,30.30,29.96,24,5,24,0.00
2014-1-23,6,-1,-8,-5,-9,-14,73,67,59,30.66,30.30,24,6,24,0.00
2014-1-24,31,13,-10,28,6,-16,89,73,62,30.54,29.45,20,4,21,0.00
2014-1-25,32,14,5,28,1,-6,89,56,37,29.89,29.44,36,8,36,0.00
2014-1-26,24,11,2,20,6,-6,92,79,61,29.92,29.42,33,6,33,0.00
2014-1-27,2,-5,-11,-6,-15,-19,74,64,54,30.49,29.92,26,6,26,0.00
2014-1-28,2,-6,-14,-8,-14,-20,76,67,59,30.49,30.25,16,3,16,0.00
2014-1-29,22,10,-4,12,0,-10,74,65,50,30.26,29.89,13,2,13,0.00
2014-1-30,30,25,15,27,18,8,89,76,65,29.99,29.58,18,4,18,0.00
2014-1-31,15,8,2,8,1,-4,82,73,61,30.21,29.99,10,1,10,0.00
2014-2-1,20,13,3,16,8,-1,86,82,77,30.18,30.01,13,2,13,0.00
2014-2-2,16,6,-8,9,0,-13,86,75,58,30.40,30.18,12,1,12,0.00
2014-2-3,19,4,-13,8,-3,-18,84,73,56,30.44,30.37,10,1,10,0.01
2014-2-4,17,10,-2,11,4,-6,85,78,70,30.51,30.28,17,2,17,0.00
2014-2-5,18,14,2,12,8,-3,86,77,66,30.50,30.25,20,5,20,0.00
2014-2-6,7,0,-6,-3,-7,-11,81,73,60,30.49,30.38,17,3,17,0.00
2014-2-7,14,4,-6,1,-4,-11,79,69,53,30.40,30.32,19,2,19,0.00
2014-2-8,13,4,-11,9,0,-16,91,82,75,30.36,30.19,9,1,9,0.00
2014-2-9,17,7,-2,9,1,-8,86,75,62,30.40,30.19,11,3,15,0.00
2014-2-10,9,-1,-13,-3,-9,-18,80,68,57,30.57,30.39,15,2,15,0.00
2014-2-11,11,-2,-16,-1,-9,-21,81,70,54,30.60,30.40,11,1,11,0.00
2014-2-12,18,10,1,14,5,-5,87,79,72,30.40,30.03,7,1,8,0.00
2014-2-13,30,21,10,26,16,7,89,80,72,30.03,29.52,27,4,27,0.01
2014-2-14,22,14,7,12,7,0,92,73,62,30.04,29.66,14,4,17,0.00
2014-2-15,18,8,-7,13,2,-12,92,76,64,30.13,30.00,9,1,13,0.00
2014-2-16,20,16,11,14,11,6,89,79,69,30.32,30.01,13,4,13,0.00
2014-2-17,25,22,17,22,19,12,93,88,79,30.28,29.74,27,7,27,0.00
2014-2-18,44,31,14,35,26,11,92,82,66,29.93,29.60,21,3,21,0.22
2014-2-19,46,36,29,32,27,24,83,70,47,29.94,29.67,12,3,12,0.00
2014-2-20,40,35,32,39,32,26,96,90,79,29.89,29.06,27,9,27,0.45
2014-2-21,35,23,18,31,16,11,86,74,63,29.81,29.16,28,9,28,0.00
2014-2-22,30,20,12,16,10,6,76,66,51,30.13,29.81,16,4,16,0.00
2014-2-23,24,15,8,10,5,1,76,66,53,30.27,30.13,19,4,19,0.00
2014-2-24,23,15,6,9,5,0,77,65,51,30.32,30.25,21,4,21,0.00
2014-2-25,15,9,1,5,-1,-7,84,64,48,30.31,30.19,19,6,19,0.00
2014-2-26,16,5,-6,10,-4,-12,81,66,49,30.32,29.68,31,5,31,0.00
2014-2-27,10,2,-8,-1,-12,-15,71,53,38,30.25,29.75,27,5,27,0.00
2014-2-28,21,8,-11,16,1,-17,85,71,61,30.26,30.03,20,3,20,0.00
2014-3-1,19,11,4,16,4,-4,92,74,63,30.46,30.11,13,5,19,0.00
2014-3-2,7,2,-2,-4,-12,-16,68,52,39,30.58,30.46,18,5,18,0.00
2014-3-3,16,6,-9,2,-7,-17,69,56,43,30.62,30.40,7,1,9,0.00
2014-3-4,21,15,9,12,8,2,87,74,60,30.40,30.23,10,2,10,0.07
2014-3-5,19,14,1,12,8,-4,88,79,64,30.54,30.32,18,5,18,0.00
2014-3-6,25,12,-6,16,6,-10,85,77,66,30.51,30.09,11,2,14,0.04
2014-3-7,44,31,15,32,24,10,86,76,60,30.08,29.86,13,2,13,0.05
2014-3-8,34,28,14,29,20,10,85,74,57,30.27,30.06,20,4,20,0.00
2014-3-9,40,28,11,34,21,8,89,76,62,30.26,29.76,15,2,15,0.00
2014-3-10,57,45,34,40,36,30,89,70,51,29.76,29.60,12,2,12,0.00
2014-3-11,42,39,33,37,34,31,92,82,69,29.83,29.66,14,2,14,0.03
2014-3-12,35,25,12,32,18,6,88,75,59,30.15,29.81,16,5,18,0.00
2014-3-13,39,26,9,35,20,5,91,79,66,30.15,29.76,14,1,14,0.00
2014-3-14,49,42,36,36,33,28,89,71,56,29.84,29.53,30,5,30,0.00
2014-3-15,36,32,26,29,22,19,82,68,56,30.35,29.84,20,4,20,0.00
2014-3-16,26,18,10,21,10,3,81,70,59,30.48,30.22,25,8,25,0.00
2014-3-17,35,24,12,24,16,8,84,70,52,30.23,29.76,18,4,18,0.00
2014-3-18,44,36,28,34,30,24,88,79,65,29.86,29.70,24,7,24,0.03
2014-3-19,38,35,33,35,31,24,95,87,68,29.99,29.60,23,5,23,0.14
2014-3-20,44,35,26,29,26,22,87,71,50,30.07,29.98,14,2,14,0.00
2014-3-21,48,37,23,41,30,20,90,78,65,30.03,29.72,26,4,26,0.00
2014-3-22,38,31,20,29,20,8,81,65,46,30.42,29.91,23,7,23,0.00
2014-3-23,28,21,14,11,8,5,71,58,43,30.52,30.40,18,5,18,0.00
2014-3-24,35,26,16,25,15,8,88,66,44,30.43,30.07,20,3,20,0.00
2014-3-25,26,20,15,22,9,4,88,62,46,30.28,30.06,25,6,25,0.00
2014-3-26,37,25,8,26,15,4,89,68,54,30.33,29.90,30,4,30,0.00
2014-3-27,44,38,34,43,35,25,96,88,60,29.90,29.40,18,4,18,0.32
2014-3-28,41,35,32,39,31,28,95,83,71,30.20,29.42,23,5,23,0.07
2014-3-29,44,36,30,31,28,24,90,74,58,30.31,30.21,17,3,17,0.00
2014-3-30,54,41,26,41,32,21,82,71,59,30.28,29.98,18,2,18,0.00
2014-3-31,62,51,40,47,40,35,85,68,54,30.00,29.58,32,6,32,0.00
2014-4-1,54,35,26,46,26,20,79,68,54,30.11,29.57,28,7,28,0.00
2014-4-2,48,36,22,33,26,18,91,69,49,30.23,30.11,23,5,23,0.00
2014-4-3,38,36,35,33,28,24,89,72,63,30.11,29.67,31,11,31,0.00
2014-4-4,38,35,33,34,31,27,95,86,74,30.03,29.48,35,7,35,0.25
2014-4-5,52,40,25,33,28,22,90,65,40,30.20,30.02,8,2,12,0.00
2014-4-6,43,33,30,35,28,26,87,82,71,30.13,30.09,8,0,8,0.00
2014-4-12,58,51,46,50,45,40,93,81,66,29.83,29.66,24,8,24,0.09
2014-4-13,51,47,43,49,46,41,100,95,92,29.79,29.51,29,5,29,2.48
2014-4-14,43,33,25,41,29,22,100,86,74,30.08,29.49,30,7,30,0.39
2014-4-15,36,27,12,23,18,9,95,71,49,30.23,30.06,17,2,17,0.04
2014-4-16,50,40,28,35,28,20,77,64,54,30.25,30.04,29,9,29,0.00
2014-4-17,54,46,35,41,36,31,84,70,58,30.31,29.99,23,5,23,0.00
2014-4-18,54,41,28,35,31,25,91,70,41,30.41,30.30,20,3,20,0.00
2014-4-19,66,49,33,44,35,26,77,60,41,30.40,30.16,20,6,20,0.00
2014-4-20,76,60,50,54,47,40,88,63,42,30.18,29.95,15,2,15,0.03
2014-4-21,69,60,53,60,53,35,92,79,46,29.96,29.77,30,2,30,0.02
2014-4-22,57,48,39,37,32,28,70,55,36,30.11,29.86,24,6,24,0.00
2014-4-23,55,43,29,38,31,25,88,65,40,30.19,30.02,19,3,19,0.13